Villahermosa Airport, Mexico

12:34 PM CDT on August 30, 2015 (GMT -0500)
C P A Carlos Rovirosa International | | Change Station
CLOSE
Current Station
Airport
Location: Villahermosa Airport,
Elevation: 43 ft
Nearby Weather Stations

Elev 43 ft 18.00 °N, 92.82 °W | Updated 51 minutes ago

Mostly Cloudy
Mostly Cloudy
86 °F
Feels Like 97 °F
N
5
Wind Variable Wind from SSE

Today
High -- | Low -- °F
--% Chance of Precip.
Yesterday
High -- | Low -- °F
Precip. -- in
6:56 AM 7:26 PM
Full, 99% visible
Pressure 29.96 in
Visibility 7.0 miles
Clouds Scattered Clouds 1200 ft
Scattered Clouds 12000 ft
Mostly Cloudy 21000 ft
Heat Index 97 °F
Dew Point 77 °F
Humidity 74%
Rainfall 0.00 in
Snow Depth Not available.
UV 6 out of 12
Pollen Not available.
Air Quality Not available.
Flu Activity Not available.
METAR MMVA 301643Z 15004KT 7SM SCT012 SCT120 BKN210 30/25 A2996 RMK 8/136
Pressure 29.96 in
Visibility 7.0 miles
Clouds Scattered Clouds 1200 ft
Scattered Clouds 12000 ft
Mostly Cloudy 21000 ft
Heat Index 97 °F
Dew Point 77 °F
Humidity 74%
Rainfall 0.00 in
Snow Depth Not available.
UV 6 out of 12
Pollen Not available.
Air Quality Not available.
Flu Activity Not available.
METAR MMVA 301643Z 15004KT 7SM SCT012 SCT120 BKN210 30/25 A2996 RMK 8/136

10-Day Weather Forecast

×

Almanac

Astronomy

Aug. 30, 2015 Rise Set
Actual Time
Civil Twilight
Nautical Twilight
Astronomical Twilight
Moon
Length of Visible Light
Length of Day
Tomorrow will be .
, % of the Moon is Illuminated

Today's Extremes

Country Highs Country Lows

Community

WunderPhotos

Upload Photos

1,851,014 photos uploaded!

WunderBlogs® & News

Nearby

Air Quality

  Air Quality AQ Index Pollutant
Not available.

Snow Depth

Station Depth Elevation

Earthquake Activity

City Distance Mag. Time & Date
Minimum magnitude displayed is 2.5.

Coastal Water Temperatures

Place Temperature

Stations

Nearby Weather Stations

Station Location Temp. Windchill Dew Point Humidity Wind Precip. Elev Updated Type